createdAt,value
2019-02-17T00:00:50.928Z,62.53
2019-02-17T00:03:20.882Z,63.35
2019-02-17T00:05:49.800Z,63.63
2019-02-17T00:08:18.939Z,63.01
2019-02-17T00:10:47.900Z,63.09
2019-02-17T00:13:17.003Z,63.48
2019-02-17T00:15:45.759Z,63.85
2019-02-17T00:35:00.817Z,64.61
2019-02-17T00:37:30.775Z,64.04
2019-02-17T00:40:00.104Z,64.61
2019-02-17T00:42:29.215Z,64.35
2019-02-17T00:58:51.408Z,65.31
2019-02-17T01:01:21.355Z,65.06
2019-02-17T01:03:50.166Z,65.36
2019-02-17T01:06:19.258Z,65.62
2019-02-17T01:08:48.429Z,65.79
2019-02-17T01:11:17.440Z,65.83
2019-02-17T01:13:46.644Z,65.72
2019-02-17T01:16:16.251Z,66.11
2019-02-17T01:18:46.135Z,65.78
2019-02-17T01:21:15.816Z,65.83
2019-02-17T01:23:45.063Z,66.42
2019-02-17T01:26:14.650Z,66.62
2019-02-17T01:28:43.747Z,66.86
2019-02-17T01:31:12.722Z,66.79
2019-02-17T01:33:41.754Z,66.75
2019-02-17T01:36:10.709Z,66.79
2019-02-17T01:38:40.494Z,66.75
2019-02-17T01:41:09.443Z,67.39
2019-02-17T01:43:38.791Z,66.81
2019-02-17T01:46:08.064Z,66.46
2019-02-17T01:48:37.135Z,66.84
2019-02-17T01:51:06.028Z,66.79
2019-02-17T01:53:35.458Z,66.75
2019-02-17T01:56:05.240Z,66.92
2019-02-17T01:58:34.811Z,66.62
2019-02-17T02:01:04.573Z,66.93
2019-02-17T02:03:33.464Z,67.09
2019-02-17T02:06:02.443Z,66.94
2019-02-17T02:08:31.861Z,66.75
2019-02-17T02:11:00.954Z,67.62
2019-02-17T02:13:30.206Z,67.46
2019-02-17T02:15:59.245Z,67.80
2019-02-17T02:18:29.246Z,67.50
2019-02-17T02:20:58.375Z,67.62
2019-02-17T02:23:27.965Z,67.73
2019-02-17T02:25:56.941Z,67.41
2019-02-17T02:28:26.072Z,67.44
2019-02-17T02:30:55.256Z,67.82
2019-02-17T02:33:24.950Z,67.74
2019-02-17T02:35:53.992Z,67.58
2019-02-17T02:38:23.053Z,67.54
2019-02-17T02:40:52.037Z,67.70
2019-02-17T02:43:21.164Z,68.09
2019-02-17T02:45:50.027Z,69.06
2019-02-17T02:48:18.914Z,68.90
2019-02-17T02:50:47.886Z,69.16
2019-02-17T02:53:16.828Z,69.49
2019-02-17T02:55:45.891Z,69.13
2019-02-17T02:58:15.046Z,68.95
2019-02-17T03:00:44.926Z,68.77
2019-02-17T03:03:13.789Z,69.08
2019-02-17T03:05:46.848Z,68.65
2019-02-17T03:08:15.995Z,68.47
2019-02-17T03:10:45.184Z,68.83
2019-02-17T03:13:14.307Z,68.88
2019-02-17T03:15:43.283Z,69.36
2019-02-17T03:18:12.187Z,69.02
2019-02-17T03:20:41.840Z,69.03
2019-02-17T03:23:10.882Z,69.03
2019-02-17T03:25:39.865Z,69.17
2019-02-17T03:28:08.942Z,69.33
2019-02-17T03:30:38.556Z,69.75
2019-02-17T03:33:07.636Z,69.48
2019-02-17T03:35:36.760Z,69.70
2019-02-17T03:38:05.939Z,69.21
2019-02-17T03:40:35.056Z,69.10
2019-02-17T03:43:04.383Z,68.95
2019-02-17T03:45:33.284Z,68.82
2019-02-17T03:48:02.768Z,69.09
2019-02-17T03:50:31.911Z,69.19
2019-02-17T03:53:00.745Z,69.01
2019-02-17T03:55:29.683Z,69.28
2019-02-17T03:57:59.184Z,69.12
2019-02-17T04:00:28.140Z,69.13
2019-02-17T04:02:56.899Z,69.23
2019-02-17T04:05:26.327Z,69.17
2019-02-17T04:07:55.306Z,69.15
2019-02-17T04:10:24.642Z,69.04
2019-02-17T04:12:54.085Z,69.04
2019-02-17T04:15:23.951Z,69.11
2019-02-17T04:17:52.931Z,69.02
2019-02-17T04:20:21.968Z,69.32
2019-02-17T04:22:51.444Z,69.72
2019-02-17T04:25:20.727Z,69.50
2019-02-17T04:27:50.627Z,69.45
2019-02-17T04:30:28.810Z,69.83
2019-02-17T04:32:48.711Z,69.66
2019-02-17T04:35:17.647Z,69.21
2019-02-17T04:37:47.340Z,69.54
2019-02-17T04:40:17.070Z,69.59
2019-02-17T04:42:45.991Z,69.30
2019-02-17T04:45:15.419Z,69.53
2019-02-17T04:47:44.947Z,69.38
2019-02-17T04:50:14.808Z,69.45
2019-02-17T04:52:43.774Z,69.62
2019-02-17T04:55:13.042Z,70.04
2019-02-17T04:57:43.116Z,69.82
2019-02-17T05:00:13.181Z,70.11
2019-02-17T05:02:42.201Z,70.30
2019-02-17T05:05:11.259Z,70.16
2019-02-17T05:07:40.180Z,69.80
2019-02-17T05:10:09.194Z,70.14
2019-02-17T05:12:38.313Z,70.06
2019-02-17T05:15:07.471Z,70.81
2019-02-17T05:17:36.365Z,70.26
2019-02-17T05:20:05.925Z,70.77
2019-02-17T05:22:35.254Z,70.55
2019-02-17T05:25:04.099Z,70.77
2019-02-17T05:27:33.515Z,70.00
2019-02-17T05:30:03.097Z,70.64
2019-02-17T05:32:33.046Z,70.63
2019-02-17T05:35:02.139Z,70.71
2019-02-17T05:37:31.072Z,70.55
2019-02-17T05:40:00.112Z,70.35
2019-02-17T05:42:29.934Z,70.38
2019-02-17T05:44:59.710Z,70.68
2019-02-17T05:47:28.667Z,70.32
2019-02-17T05:49:57.574Z,70.27
2019-02-17T05:52:27.016Z,71.65
2019-02-17T05:54:56.711Z,72.03
2019-02-17T05:57:26.216Z,71.79
2019-02-17T05:59:55.111Z,74.15
2019-02-17T06:02:24.035Z,73.43
2019-02-17T06:04:52.890Z,71.69
2019-02-17T06:07:22.382Z,70.90
2019-02-17T06:09:51.678Z,70.80
2019-02-17T06:12:20.791Z,70.49
2019-02-17T06:14:49.508Z,70.40
2019-02-17T06:17:18.493Z,70.66
2019-02-17T06:19:47.364Z,70.35
2019-02-17T06:22:17.216Z,71.19
2019-02-17T06:24:46.400Z,71.04
2019-02-17T06:27:15.454Z,70.74
2019-02-17T06:29:44.352Z,71.63
2019-02-17T06:32:13.481Z,70.69
2019-02-17T06:34:42.540Z,70.76
2019-02-17T06:37:11.856Z,70.47
2019-02-17T06:39:40.985Z,70.75
2019-02-17T06:42:09.828Z,70.54
2019-02-17T06:44:39.131Z,70.71
2019-02-17T06:47:12.669Z,70.12
2019-02-17T06:49:41.966Z,70.38
2019-02-17T06:52:11.651Z,69.87
2019-02-17T06:54:40.853Z,70.41
2019-02-17T06:57:15.983Z,70.59
2019-02-17T06:59:45.444Z,70.62
2019-02-17T07:02:14.307Z,70.41
2019-02-17T07:04:49.187Z,70.26
2019-02-17T07:07:18.208Z,70.04
2019-02-17T07:09:47.323Z,69.85
2019-02-17T07:12:16.335Z,69.76
2019-02-17T07:14:45.582Z,70.23
2019-02-17T07:17:14.747Z,69.53
2019-02-17T07:19:43.963Z,69.53
2019-02-17T07:22:13.280Z,69.33
2019-02-17T07:24:42.588Z,68.84
2019-02-17T07:27:12.223Z,68.92
2019-02-17T07:29:41.705Z,68.94
2019-02-17T07:32:10.831Z,68.45
2019-02-17T07:34:39.932Z,68.09
2019-02-17T07:37:09.659Z,68.09
2019-02-17T07:39:38.493Z,68.32
2019-02-17T07:42:09.567Z,67.74
2019-02-17T07:44:37.086Z,67.80
2019-02-17T07:47:06.199Z,67.87
2019-02-17T07:49:35.091Z,67.03
2019-02-17T07:52:04.692Z,66.77
2019-02-17T07:54:33.928Z,67.67
2019-02-17T07:57:03.177Z,66.85
2019-02-17T07:59:33.401Z,67.21
2019-02-17T08:02:02.642Z,66.20
2019-02-17T08:04:31.732Z,65.79
2019-02-17T08:07:01.522Z,64.83
2019-02-17T08:09:31.121Z,63.85
2019-02-17T08:12:00.230Z,63.62
2019-02-17T08:14:29.215Z,63.96
2019-02-17T08:16:58.255Z,63.27
2019-02-17T08:19:27.251Z,63.17
2019-02-17T08:21:56.319Z,64.56
2019-02-17T08:24:25.207Z,64.32
2019-02-17T08:26:54.202Z,66.05
2019-02-17T08:29:23.984Z,63.92
2019-02-17T08:31:56.126Z,61.62
2019-02-17T08:34:22.520Z,60.89
2019-02-17T08:36:51.175Z,61.29
2019-02-17T08:39:20.931Z,61.07
2019-02-17T08:41:50.004Z,59.33
2019-02-17T08:44:19.636Z,59.25
2019-02-17T08:46:48.534Z,57.97
2019-02-17T08:49:17.803Z,62.74
2019-02-17T08:51:46.799Z,59.71
2019-02-17T08:54:16.349Z,58.10
2019-02-17T08:56:45.495Z,58.27
2019-02-17T08:59:14.533Z,58.11
2019-02-17T09:01:43.580Z,58.20
2019-02-17T09:04:12.620Z,58.59
2019-02-17T09:06:41.681Z,58.15
2019-02-17T09:09:11.350Z,58.05
2019-02-17T09:11:40.420Z,57.27
2019-02-17T09:14:09.486Z,57.11
2019-02-17T09:16:38.615Z,56.79
2019-02-17T09:19:07.911Z,57.72
2019-02-17T09:21:36.776Z,57.75
2019-02-17T09:24:05.867Z,59.28
2019-02-17T09:26:35.305Z,55.78
2019-02-17T09:29:04.399Z,55.06
2019-02-17T09:31:33.501Z,53.32
2019-02-17T09:34:02.594Z,53.53
2019-02-17T09:36:31.460Z,53.17
2019-02-17T09:39:00.547Z,52.84
2019-02-17T09:41:30.091Z,53.23
2019-02-17T09:43:59.058Z,52.76
2019-02-17T09:46:28.705Z,51.65
2019-02-17T09:48:57.969Z,51.42
2019-02-17T09:51:27.185Z,50.81
2019-02-17T09:53:56.471Z,50.11
2019-02-17T09:56:25.926Z,49.38
2019-02-17T09:58:54.748Z,48.62
2019-02-17T10:01:23.753Z,48.63
2019-02-17T10:03:53.023Z,48.76
2019-02-17T10:06:22.067Z,47.87
2019-02-17T10:08:51.088Z,47.00
2019-02-17T10:11:20.229Z,48.17
2019-02-17T10:13:49.216Z,47.49
2019-02-17T10:16:18.538Z,46.95
2019-02-17T10:18:49.000Z,46.39
2019-02-17T10:21:18.187Z,46.06
2019-02-17T10:23:47.258Z,47.39
2019-02-17T10:26:16.371Z,46.95
2019-02-17T10:28:45.992Z,46.27
2019-02-17T10:31:14.829Z,45.82
2019-02-17T10:33:44.079Z,45.40
2019-02-17T10:36:13.132Z,44.76
2019-02-17T10:38:42.027Z,44.25
2019-02-17T10:41:11.304Z,43.88
2019-02-17T10:43:40.113Z,44.44
2019-02-17T10:46:09.127Z,43.75
2019-02-17T10:48:38.309Z,45.32
2019-02-17T10:51:07.431Z,45.15
2019-02-17T10:53:36.808Z,43.00
2019-02-17T10:56:05.749Z,42.55
2019-02-17T10:58:34.628Z,42.15
2019-02-17T11:01:04.108Z,42.19
2019-02-17T11:03:33.167Z,42.25
2019-02-17T11:06:02.192Z,41.74
2019-02-17T11:08:31.982Z,42.04
2019-02-17T11:11:01.675Z,41.62
2019-02-17T11:13:30.507Z,41.34
2019-02-17T11:15:59.662Z,40.21
2019-02-17T11:18:28.827Z,39.00
2019-02-17T11:20:57.899Z,39.70
2019-02-17T11:23:26.795Z,39.76
2019-02-17T11:25:56.475Z,39.67
2019-02-17T11:28:26.163Z,38.91
2019-02-17T11:30:55.545Z,42.91
2019-02-17T11:33:24.542Z,41.04
2019-02-17T11:35:53.705Z,40.26
2019-02-17T11:38:23.332Z,39.43
2019-02-17T11:40:52.456Z,39.11
2019-02-17T11:43:21.308Z,37.86
2019-02-17T11:45:50.407Z,37.20
2019-02-17T11:48:19.736Z,36.29
2019-02-17T11:50:48.526Z,34.76
2019-02-17T11:53:17.248Z,34.49
2019-02-17T11:55:46.223Z,35.48
2019-02-17T11:58:15.390Z,35.03
2019-02-17T12:00:45.191Z,34.89
2019-02-17T12:03:14.327Z,34.48
2019-02-17T12:05:43.396Z,32.51
2019-02-17T12:08:12.902Z,32.05
2019-02-17T12:10:41.921Z,31.08
2019-02-17T12:13:11.076Z,30.60
2019-02-17T12:15:39.760Z,31.03
2019-02-17T12:18:08.798Z,31.14
2019-02-17T12:20:48.853Z,30.43
2019-02-17T12:23:22.724Z,29.76
2019-02-17T12:25:56.836Z,30.37
2019-02-17T12:28:32.222Z,29.30
2019-02-17T12:31:01.241Z,29.04
2019-02-17T12:33:30.159Z,28.07
2019-02-17T12:35:59.174Z,27.49
2019-02-17T12:38:28.264Z,27.99
2019-02-17T12:40:57.361Z,26.70
2019-02-17T12:43:26.651Z,26.62
2019-02-17T12:45:55.758Z,26.99
2019-02-17T12:48:25.710Z,25.68
2019-02-17T12:50:55.198Z,25.29
2019-02-17T12:53:24.168Z,24.41
2019-02-17T12:55:53.274Z,22.97
2019-02-17T12:58:29.904Z,22.45
2019-02-17T13:00:53.230Z,21.71
2019-02-17T13:03:28.496Z,21.96
2019-02-17T13:05:51.274Z,21.32
2019-02-17T13:08:20.284Z,21.57
2019-02-17T13:10:49.163Z,20.43
2019-02-17T13:13:19.246Z,20.98
2019-02-17T13:15:48.193Z,20.18
2019-02-17T13:18:17.302Z,20.76
2019-02-17T13:20:46.713Z,19.84
2019-02-17T13:23:15.569Z,19.09
2019-02-17T13:25:44.355Z,18.38
2019-02-17T13:28:13.872Z,17.90
2019-02-17T13:30:43.467Z,17.83
2019-02-17T13:33:12.826Z,18.32
2019-02-17T13:35:41.914Z,18.26
2019-02-17T13:38:11.813Z,17.10
2019-02-17T13:40:40.900Z,16.95
2019-02-17T13:43:09.947Z,17.88
2019-02-17T13:45:41.363Z,17.18
2019-02-17T13:48:12.989Z,16.23
2019-02-17T13:50:43.489Z,16.35
2019-02-17T13:53:12.914Z,17.50
2019-02-17T13:55:42.627Z,16.66
2019-02-17T13:58:11.742Z,17.13
2019-02-17T14:00:41.013Z,17.38
2019-02-17T14:03:10.305Z,17.86
2019-02-17T14:05:39.123Z,18.09
2019-02-17T14:08:08.326Z,18.75
2019-02-17T14:10:37.504Z,19.49
2019-02-17T14:13:08.155Z,19.43
2019-02-17T14:15:37.416Z,19.89
2019-02-17T14:18:06.884Z,19.44
2019-02-17T14:20:35.977Z,19.27
2019-02-17T14:23:05.211Z,21.10
2019-02-17T14:25:35.186Z,20.53
2019-02-17T14:28:05.486Z,20.07
2019-02-17T14:30:34.355Z,20.61
2019-02-17T14:33:04.300Z,19.99
2019-02-17T14:35:33.863Z,19.91
2019-02-17T14:38:03.105Z,20.15
2019-02-17T14:40:32.826Z,20.99
2019-02-17T14:43:02.145Z,21.40
2019-02-17T14:45:33.148Z,21.99
2019-02-17T14:48:03.045Z,22.98
2019-02-17T14:50:32.635Z,23.04
2019-02-17T14:53:01.494Z,23.23
2019-02-17T14:55:30.616Z,23.57
2019-02-17T14:58:05.342Z,24.14
2019-02-17T15:00:28.839Z,23.63
2019-02-17T15:02:57.719Z,23.12
2019-02-17T15:05:27.143Z,24.13
2019-02-17T15:07:56.242Z,25.95
2019-02-17T15:10:25.146Z,26.51
2019-02-17T15:12:54.865Z,27.35
2019-02-17T15:15:23.972Z,26.82
2019-02-17T15:17:53.050Z,28.33
2019-02-17T15:20:22.052Z,29.06
2019-02-17T15:22:50.981Z,29.10
2019-02-17T15:25:20.839Z,29.05
2019-02-17T15:27:49.844Z,28.60
2019-02-17T15:30:19.178Z,29.68
2019-02-17T15:32:48.245Z,31.17
2019-02-17T15:35:18.400Z,30.84
2019-02-17T15:37:47.313Z,31.20
2019-02-17T15:40:19.061Z,31.41
2019-02-17T15:42:48.038Z,31.71
2019-02-17T15:45:17.664Z,32.17
2019-02-17T15:47:46.421Z,32.23
2019-02-17T15:50:15.632Z,33.15
2019-02-17T15:52:44.837Z,33.73
2019-02-17T15:55:14.685Z,33.83
2019-02-17T15:57:44.011Z,34.06
2019-02-17T16:00:13.622Z,34.07
2019-02-17T16:02:42.838Z,33.92
2019-02-17T16:05:12.021Z,33.89
2019-02-17T16:07:40.759Z,33.97
2019-02-17T16:10:10.470Z,34.22
2019-02-17T16:12:39.389Z,34.52
2019-02-17T16:15:10.791Z,34.74
2019-02-17T16:17:40.617Z,34.82
2019-02-17T16:20:11.228Z,34.57
2019-02-17T16:22:40.301Z,35.52
2019-02-17T16:25:09.724Z,36.18
2019-02-17T16:27:38.812Z,35.95
2019-02-17T16:30:10.813Z,36.67
2019-02-17T16:32:41.435Z,36.52
2019-02-17T16:35:10.590Z,36.73
2019-02-17T16:37:39.727Z,37.29
2019-02-17T16:40:10.407Z,37.45
2019-02-17T16:42:39.538Z,37.72
2019-02-17T16:45:10.668Z,37.87
2019-02-17T16:47:39.627Z,38.34
2019-02-17T16:50:11.124Z,39.45
2019-02-17T16:52:40.562Z,39.39
2019-02-17T16:55:10.295Z,39.47
2019-02-17T16:57:39.216Z,39.92
2019-02-17T17:00:09.783Z,39.18
2019-02-17T17:02:39.458Z,40.21
2019-02-17T17:05:09.701Z,39.96
2019-02-17T17:07:38.786Z,39.98
2019-02-17T17:10:07.980Z,40.88
2019-02-17T17:12:37.152Z,41.84
2019-02-17T17:15:06.915Z,42.46
2019-02-17T17:17:36.148Z,41.95
2019-02-17T17:20:05.311Z,41.33
2019-02-17T17:22:34.384Z,41.47
2019-02-17T17:25:03.510Z,41.49
2019-02-17T17:27:32.605Z,41.83
2019-02-17T17:30:02.361Z,41.64
2019-02-17T17:32:31.402Z,41.94
2019-02-17T17:35:00.415Z,42.35
2019-02-17T17:37:31.371Z,42.79
2019-02-17T17:40:00.439Z,43.02
2019-02-17T17:42:29.582Z,43.14
2019-02-17T17:44:58.743Z,43.04
2019-02-17T17:47:28.512Z,43.24
2019-02-17T17:49:57.452Z,43.22
2019-02-17T17:52:26.671Z,44.25
2019-02-17T17:54:55.706Z,43.95
2019-02-17T17:57:24.739Z,44.06
2019-02-17T17:59:53.608Z,44.19
2019-02-17T18:02:22.592Z,44.60
2019-02-17T18:04:51.815Z,44.79
2019-02-17T18:07:20.823Z,45.04
2019-02-17T18:09:50.251Z,45.34
2019-02-17T18:12:19.212Z,45.43
2019-02-17T18:14:47.931Z,45.34
2019-02-17T18:17:16.724Z,45.50
2019-02-17T18:19:45.571Z,46.05
2019-02-17T18:22:14.601Z,45.85
2019-02-17T18:24:43.627Z,46.07
2019-02-17T18:27:12.931Z,46.38
2019-02-17T18:29:41.942Z,46.73
2019-02-17T18:32:11.247Z,47.11
2019-02-17T18:34:40.354Z,46.94
2019-02-17T18:37:09.329Z,47.03
2019-02-17T18:39:38.215Z,47.17
2019-02-17T18:42:07.344Z,47.51
2019-02-17T18:44:36.395Z,47.13
2019-02-17T18:47:05.513Z,47.71
2019-02-17T18:49:34.435Z,46.99
2019-02-17T18:52:04.252Z,47.25
2019-02-17T18:54:36.785Z,46.98
2019-02-17T18:57:08.222Z,47.54
2019-02-17T18:59:34.658Z,47.68
2019-02-17T19:02:04.517Z,47.94
2019-02-17T19:04:33.340Z,47.54
2019-02-17T19:07:02.363Z,47.38
2019-02-17T19:09:31.499Z,47.67
2019-02-17T19:12:00.559Z,47.60
2019-02-17T19:14:29.520Z,48.02
2019-02-17T19:16:59.096Z,47.82
2019-02-17T19:19:27.959Z,48.09
2019-02-17T19:21:57.072Z,47.62
2019-02-17T19:24:26.814Z,47.69
2019-02-17T19:26:56.208Z,47.97
2019-02-17T19:29:25.172Z,47.99
2019-02-17T19:31:54.438Z,48.14
2019-02-17T19:34:23.690Z,47.91
2019-02-17T19:36:53.217Z,48.28
2019-02-17T19:39:22.071Z,48.85
2019-02-17T19:41:51.119Z,49.67
2019-02-17T19:44:20.008Z,48.15
2019-02-17T19:46:49.080Z,48.13
2019-02-17T19:49:18.723Z,48.49
2019-02-17T19:51:49.642Z,48.24
2019-02-17T19:54:16.899Z,48.50
2019-02-17T19:56:46.207Z,48.05
2019-02-17T19:59:15.042Z,48.28
2019-02-17T20:01:44.199Z,48.58
2019-02-17T20:04:24.256Z,48.37
2019-02-17T20:06:53.451Z,48.89
2019-02-17T20:09:22.622Z,49.30
2019-02-17T20:11:52.416Z,49.02
2019-02-17T20:14:21.033Z,49.20
2019-02-17T20:16:50.281Z,49.02
2019-02-17T20:19:19.269Z,49.13
2019-02-17T20:21:48.707Z,49.32
2019-02-17T20:24:17.949Z,49.13
2019-02-17T20:26:47.103Z,49.40
2019-02-17T20:29:16.416Z,49.39
2019-02-17T20:31:45.639Z,49.35
2019-02-17T20:34:14.812Z,49.07
2019-02-17T20:36:44.036Z,49.07
2019-02-17T20:39:13.092Z,49.68
2019-02-17T20:41:42.075Z,49.36
2019-02-17T20:44:11.529Z,49.11
2019-02-17T20:46:40.460Z,49.32
2019-02-17T20:49:09.344Z,49.29
2019-02-17T20:51:38.665Z,49.25
2019-02-17T20:54:08.175Z,49.30
2019-02-17T20:56:37.899Z,49.38
2019-02-17T20:59:08.027Z,49.53
2019-02-17T21:01:36.908Z,49.11
2019-02-17T21:04:05.886Z,49.41
2019-02-17T21:06:34.942Z,49.54
2019-02-17T21:09:04.503Z,49.53
2019-02-17T21:11:34.049Z,49.42
2019-02-17T21:14:03.184Z,49.65
2019-02-17T21:16:32.672Z,49.63
2019-02-17T21:19:01.724Z,49.09
2019-02-17T21:21:30.903Z,49.60
2019-02-17T21:24:00.860Z,49.24
2019-02-17T21:26:31.103Z,49.67
2019-02-17T21:28:59.956Z,50.25
2019-02-17T21:31:29.381Z,50.69
2019-02-17T21:33:59.151Z,50.96
2019-02-17T21:36:30.337Z,50.97
2019-02-17T21:39:00.224Z,51.10
2019-02-17T21:41:29.883Z,50.87
2019-02-17T21:43:59.032Z,51.84
2019-02-17T21:46:28.572Z,52.18
2019-02-17T21:48:57.478Z,52.73
2019-02-17T21:51:26.653Z,52.86
2019-02-17T21:53:56.253Z,53.29
2019-02-17T21:56:25.869Z,53.01
2019-02-17T21:58:55.579Z,53.28
2019-02-17T22:01:24.957Z,53.97
2019-02-17T22:03:54.405Z,54.44
2019-02-17T22:06:32.926Z,54.81
2019-02-17T22:08:52.746Z,54.68
2019-02-17T22:11:22.315Z,55.27
2019-02-17T22:13:51.838Z,54.84
2019-02-17T22:16:20.721Z,55.12
2019-02-17T22:18:50.343Z,54.90
2019-02-17T22:21:19.461Z,55.73
2019-02-17T22:23:48.414Z,55.81
2019-02-17T22:26:17.210Z,56.05
2019-02-17T22:28:46.334Z,56.32
2019-02-17T22:31:15.303Z,56.43
2019-02-17T22:33:44.391Z,56.02
2019-02-17T22:36:13.630Z,56.74
2019-02-17T22:38:42.460Z,56.61
2019-02-17T22:41:12.176Z,56.75
2019-02-17T22:43:41.483Z,57.14
2019-02-17T22:46:10.540Z,57.42
2019-02-17T22:48:39.385Z,56.78
2019-02-17T22:51:08.418Z,56.89
2019-02-17T22:53:43.713Z,57.76
2019-02-17T22:56:07.140Z,57.43
2019-02-17T22:58:36.138Z,58.24
2019-02-17T23:01:06.767Z,58.25
2019-02-17T23:03:36.226Z,58.89
2019-02-17T23:06:05.568Z,58.97
2019-02-17T23:08:35.111Z,58.50
2019-02-17T23:11:04.055Z,58.46
2019-02-17T23:13:33.459Z,58.62
2019-02-17T23:16:02.624Z,59.04
2019-02-17T23:18:31.516Z,58.78
2019-02-17T23:21:00.539Z,58.95
2019-02-17T23:23:29.598Z,59.14
2019-02-17T23:25:58.276Z,59.53
2019-02-17T23:28:28.059Z,59.41
2019-02-17T23:30:57.108Z,59.18
2019-02-17T23:33:25.991Z,59.79
2019-02-17T23:35:55.247Z,59.11
2019-02-17T23:38:24.810Z,60.16
2019-02-17T23:40:55.032Z,60.16
2019-02-17T23:43:24.600Z,60.54
2019-02-17T23:45:53.622Z,59.58
2019-02-17T23:48:22.508Z,60.65
2019-02-17T23:50:52.308Z,60.98
2019-02-17T23:53:22.437Z,60.42
2019-02-17T23:55:51.453Z,61.79
2019-02-17T23:58:20.832Z,61.63
